sensor_id;sensor_type;location;lat;lon;timestamp;P1;durP1;ratioP1;P2;durP2;ratioP2
22812;SDS011;11573;51.334;3.244;2023-05-10T00:02:08;53.35;;;30.20;;
22812;SDS011;11573;51.334;3.244;2023-05-10T00:04:35;55.78;;;31.95;;
22812;SDS011;11573;51.334;3.244;2023-05-10T00:07:02;59.20;;;30.55;;
22812;SDS011;11573;51.334;3.244;2023-05-10T00:09:28;56.42;;;32.30;;
22812;SDS011;11573;51.334;3.244;2023-05-10T00:11:55;56.65;;;31.80;;
22812;SDS011;11573;51.334;3.244;2023-05-10T00:14:24;55.10;;;31.90;;
22812;SDS011;11573;51.334;3.244;2023-05-10T00:16:51;55.55;;;30.48;;
22812;SDS011;11573;51.334;3.244;2023-05-10T00:19:18;53.30;;;30.77;;
22812;SDS011;11573;51.334;3.244;2023-05-10T00:21:45;55.15;;;29.10;;
22812;SDS011;11573;51.334;3.244;2023-05-10T00:24:12;60.00;;;31.00;;
22812;SDS011;11573;51.334;3.244;2023-05-10T00:26:39;52.85;;;29.45;;
22812;SDS011;11573;51.334;3.244;2023-05-10T00:29:08;55.60;;;29.15;;
22812;SDS011;11573;51.334;3.244;2023-05-10T00:31:35;54.63;;;26.85;;
22812;SDS011;11573;51.334;3.244;2023-05-10T00:34:02;58.13;;;27.35;;
22812;SDS011;11573;51.334;3.244;2023-05-10T00:36:29;51.60;;;25.98;;
22812;SDS011;11573;51.334;3.244;2023-05-10T00:38:57;51.03;;;25.48;;
22812;SDS011;11573;51.334;3.244;2023-05-10T00:41:24;50.10;;;25.83;;
22812;SDS011;11573;51.334;3.244;2023-05-10T00:43:53;60.05;;;25.08;;
22812;SDS011;11573;51.334;3.244;2023-05-10T00:46:20;52.83;;;24.98;;
22812;SDS011;11573;51.334;3.244;2023-05-10T00:48:47;49.67;;;22.60;;
22812;SDS011;11573;51.334;3.244;2023-05-10T00:51:16;53.08;;;21.95;;
22812;SDS011;11573;51.334;3.244;2023-05-10T00:53:44;45.28;;;21.60;;
22812;SDS011;11573;51.334;3.244;2023-05-10T00:56:12;40.95;;;22.27;;
22812;SDS011;11573;51.334;3.244;2023-05-10T00:58:39;48.67;;;20.48;;
22812;SDS011;11573;51.334;3.244;2023-05-10T01:01:07;45.00;;;20.23;;
22812;SDS011;11573;51.334;3.244;2023-05-10T01:03:35;44.85;;;20.92;;
22812;SDS011;11573;51.334;3.244;2023-05-10T01:06:03;40.70;;;21.40;;
22812;SDS011;11573;51.334;3.244;2023-05-10T01:08:30;45.45;;;20.73;;
22812;SDS011;11573;51.334;3.244;2023-05-10T01:10:57;42.05;;;18.77;;
22812;SDS011;11573;51.334;3.244;2023-05-10T01:13:37;43.20;;;18.80;;
22812;SDS011;11573;51.334;3.244;2023-05-10T01:16:06;34.38;;;15.82;;
22812;SDS011;11573;51.334;3.244;2023-05-10T01:18:38;39.83;;;15.30;;
22812;SDS011;11573;51.334;3.244;2023-05-10T01:32:41;31.38;;;12.40;;
22812;SDS011;11573;51.334;3.244;2023-05-10T01:35:24;40.92;;;15.15;;
22812;SDS011;11573;51.334;3.244;2023-05-10T01:38:02;42.17;;;19.25;;
22812;SDS011;11573;51.334;3.244;2023-05-10T01:40:48;44.90;;;19.80;;
22812;SDS011;11573;51.334;3.244;2023-05-10T01:43:22;47.13;;;20.80;;
22812;SDS011;11573;51.334;3.244;2023-05-10T01:48:40;47.90;;;20.85;;
22812;SDS011;11573;51.334;3.244;2023-05-10T01:51:18;37.53;;;18.80;;
22812;SDS011;11573;51.334;3.244;2023-05-10T01:56:18;36.67;;;17.40;;
22812;SDS011;11573;51.334;3.244;2023-05-10T01:58:49;37.00;;;18.00;;
22812;SDS011;11573;51.334;3.244;2023-05-10T02:01:19;39.78;;;17.48;;
22812;SDS011;11573;51.334;3.244;2023-05-10T02:03:50;37.97;;;18.42;;
22812;SDS011;11573;51.334;3.244;2023-05-10T02:06:18;33.03;;;18.20;;
22812;SDS011;11573;51.334;3.244;2023-05-10T02:08:48;35.13;;;18.10;;
22812;SDS011;11573;51.334;3.244;2023-05-10T02:11:17;37.42;;;18.25;;
22812;SDS011;11573;51.334;3.244;2023-05-10T02:13:45;35.85;;;18.17;;
22812;SDS011;11573;51.334;3.244;2023-05-10T02:16:15;29.50;;;16.45;;
22812;SDS011;11573;51.334;3.244;2023-05-10T02:18:44;33.35;;;16.73;;
22812;SDS011;11573;51.334;3.244;2023-05-10T02:21:13;27.23;;;15.70;;
22812;SDS011;11573;51.334;3.244;2023-05-10T02:23:43;31.35;;;17.92;;
22812;SDS011;11573;51.334;3.244;2023-05-10T02:26:12;30.80;;;16.50;;
22812;SDS011;11573;51.334;3.244;2023-05-10T02:28:41;29.00;;;15.75;;
22812;SDS011;11573;51.334;3.244;2023-05-10T02:31:09;26.52;;;14.05;;
22812;SDS011;11573;51.334;3.244;2023-05-10T02:33:38;25.20;;;12.52;;
22812;SDS011;11573;51.334;3.244;2023-05-10T02:36:07;22.67;;;11.38;;
22812;SDS011;11573;51.334;3.244;2023-05-10T02:38:35;20.80;;;11.75;;
22812;SDS011;11573;51.334;3.244;2023-05-10T02:41:03;21.70;;;11.73;;
22812;SDS011;11573;51.334;3.244;2023-05-10T02:43:32;23.33;;;11.45;;
22812;SDS011;11573;51.334;3.244;2023-05-10T02:46:01;17.33;;;10.38;;
22812;SDS011;11573;51.334;3.244;2023-05-10T02:48:29;19.33;;;10.05;;
22812;SDS011;11573;51.334;3.244;2023-05-10T02:50:58;27.13;;;13.57;;
22812;SDS011;11573;51.334;3.244;2023-05-10T02:53:31;14.73;;;9.70;;
22812;SDS011;11573;51.334;3.244;2023-05-10T02:56:00;20.20;;;11.60;;
22812;SDS011;11573;51.334;3.244;2023-05-10T02:58:33;19.17;;;11.77;;
22812;SDS011;11573;51.334;3.244;2023-05-10T03:01:00;19.80;;;12.55;;
22812;SDS011;11573;51.334;3.244;2023-05-10T03:03:27;21.27;;;13.88;;
22812;SDS011;11573;51.334;3.244;2023-05-10T03:05:54;20.48;;;12.63;;
22812;SDS011;11573;51.334;3.244;2023-05-10T03:08:23;20.10;;;11.98;;
22812;SDS011;11573;51.334;3.244;2023-05-10T03:13:31;22.98;;;12.73;;
22812;SDS011;11573;51.334;3.244;2023-05-10T03:16:09;20.17;;;13.55;;
22812;SDS011;11573;51.334;3.244;2023-05-10T03:21:26;18.25;;;12.65;;
22812;SDS011;11573;51.334;3.244;2023-05-10T03:23:58;17.40;;;11.65;;
22812;SDS011;11573;51.334;3.244;2023-05-10T03:29:06;18.40;;;10.15;;
22812;SDS011;11573;51.334;3.244;2023-05-10T03:31:33;16.90;;;10.75;;
22812;SDS011;11573;51.334;3.244;2023-05-10T03:34:01;17.95;;;10.93;;
22812;SDS011;11573;51.334;3.244;2023-05-10T03:36:28;16.27;;;9.75;;
22812;SDS011;11573;51.334;3.244;2023-05-10T03:38:55;18.80;;;9.45;;
22812;SDS011;11573;51.334;3.244;2023-05-10T03:41:21;14.07;;;10.90;;
22812;SDS011;11573;51.334;3.244;2023-05-10T03:43:48;20.45;;;11.23;;
22812;SDS011;11573;51.334;3.244;2023-05-10T03:46:15;17.17;;;11.82;;
22812;SDS011;11573;51.334;3.244;2023-05-10T03:48:43;17.92;;;12.02;;
22812;SDS011;11573;51.334;3.244;2023-05-10T03:51:10;19.15;;;9.90;;
22812;SDS011;11573;51.334;3.244;2023-05-10T03:53:38;18.15;;;11.18;;
22812;SDS011;11573;51.334;3.244;2023-05-10T03:56:05;22.70;;;12.93;;
22812;SDS011;11573;51.334;3.244;2023-05-10T03:58:32;15.23;;;10.50;;
22812;SDS011;11573;51.334;3.244;2023-05-10T04:00:59;19.45;;;10.95;;
22812;SDS011;11573;51.334;3.244;2023-05-10T04:03:26;21.67;;;12.48;;
22812;SDS011;11573;51.334;3.244;2023-05-10T04:06:02;13.23;;;10.75;;
22812;SDS011;11573;51.334;3.244;2023-05-10T04:08:29;25.00;;;9.63;;
22812;SDS011;11573;51.334;3.244;2023-05-10T04:11:07;23.42;;;11.70;;
22812;SDS011;11573;51.334;3.244;2023-05-10T04:13:35;24.88;;;12.10;;
22812;SDS011;11573;51.334;3.244;2023-05-10T04:16:02;20.95;;;12.02;;
22812;SDS011;11573;51.334;3.244;2023-05-10T04:18:29;23.10;;;11.52;;
22812;SDS011;11573;51.334;3.244;2023-05-10T04:20:57;19.30;;;10.98;;
22812;SDS011;11573;51.334;3.244;2023-05-10T04:23:24;19.60;;;12.13;;
22812;SDS011;11573;51.334;3.244;2023-05-10T04:25:51;23.00;;;10.98;;
22812;SDS011;11573;51.334;3.244;2023-05-10T04:28:18;24.27;;;11.38;;
22812;SDS011;11573;51.334;3.244;2023-05-10T04:30:44;20.33;;;12.57;;
22812;SDS011;11573;51.334;3.244;2023-05-10T04:33:12;22.90;;;12.68;;
22812;SDS011;11573;51.334;3.244;2023-05-10T04:35:39;22.83;;;13.20;;
22812;SDS011;11573;51.334;3.244;2023-05-10T04:38:06;24.17;;;11.77;;
22812;SDS011;11573;51.334;3.244;2023-05-10T04:40:33;22.33;;;12.55;;
22812;SDS011;11573;51.334;3.244;2023-05-10T04:43:00;23.45;;;12.73;;
22812;SDS011;11573;51.334;3.244;2023-05-10T04:45:27;23.15;;;11.38;;
22812;SDS011;11573;51.334;3.244;2023-05-10T04:47:54;25.10;;;12.75;;
22812;SDS011;11573;51.334;3.244;2023-05-10T04:50:21;25.08;;;11.50;;
22812;SDS011;11573;51.334;3.244;2023-05-10T04:52:48;18.77;;;10.85;;
22812;SDS011;11573;51.334;3.244;2023-05-10T04:55:15;15.77;;;8.77;;
22812;SDS011;11573;51.334;3.244;2023-05-10T04:57:42;16.38;;;7.88;;
22812;SDS011;11573;51.334;3.244;2023-05-10T05:00:09;13.75;;;7.63;;
22812;SDS011;11573;51.334;3.244;2023-05-10T05:02:36;16.40;;;6.95;;
22812;SDS011;11573;51.334;3.244;2023-05-10T05:05:03;10.00;;;5.85;;
22812;SDS011;11573;51.334;3.244;2023-05-10T05:07:31;13.60;;;5.72;;
22812;SDS011;11573;51.334;3.244;2023-05-10T05:09:58;13.82;;;5.28;;
22812;SDS011;11573;51.334;3.244;2023-05-10T05:12:25;10.90;;;5.18;;
22812;SDS011;11573;51.334;3.244;2023-05-10T05:14:51;7.95;;;4.55;;
22812;SDS011;11573;51.334;3.244;2023-05-10T05:17:18;7.47;;;4.30;;
22812;SDS011;11573;51.334;3.244;2023-05-10T05:19:45;10.20;;;4.35;;
22812;SDS011;11573;51.334;3.244;2023-05-10T05:22:12;10.00;;;4.82;;
22812;SDS011;11573;51.334;3.244;2023-05-10T05:24:39;10.15;;;5.00;;
22812;SDS011;11573;51.334;3.244;2023-05-10T05:27:06;8.63;;;4.50;;
22812;SDS011;11573;51.334;3.244;2023-05-10T05:29:33;8.57;;;5.05;;
22812;SDS011;11573;51.334;3.244;2023-05-10T05:32:00;6.53;;;5.18;;
22812;SDS011;11573;51.334;3.244;2023-05-10T05:34:27;10.50;;;5.65;;
22812;SDS011;11573;51.334;3.244;2023-05-10T05:36:54;11.20;;;5.70;;
22812;SDS011;11573;51.334;3.244;2023-05-10T05:39:21;10.98;;;6.03;;
22812;SDS011;11573;51.334;3.244;2023-05-10T05:41:48;8.70;;;5.30;;
22812;SDS011;11573;51.334;3.244;2023-05-10T05:44:15;8.10;;;5.07;;
22812;SDS011;11573;51.334;3.244;2023-05-10T05:46:42;9.95;;;5.20;;
22812;SDS011;11573;51.334;3.244;2023-05-10T05:49:09;8.77;;;5.22;;
22812;SDS011;11573;51.334;3.244;2023-05-10T05:51:36;8.85;;;5.30;;
22812;SDS011;11573;51.334;3.244;2023-05-10T05:54:03;8.88;;;5.22;;
22812;SDS011;11573;51.334;3.244;2023-05-10T05:56:30;9.55;;;5.13;;
22812;SDS011;11573;51.334;3.244;2023-05-10T05:58:57;8.23;;;4.68;;
22812;SDS011;11573;51.334;3.244;2023-05-10T06:01:24;8.52;;;4.72;;
22812;SDS011;11573;51.334;3.244;2023-05-10T06:03:51;7.45;;;4.68;;
22812;SDS011;11573;51.334;3.244;2023-05-10T06:06:19;7.10;;;4.50;;
22812;SDS011;11573;51.334;3.244;2023-05-10T06:08:45;14.43;;;5.15;;
22812;SDS011;11573;51.334;3.244;2023-05-10T06:11:12;8.73;;;5.05;;
22812;SDS011;11573;51.334;3.244;2023-05-10T06:13:39;10.55;;;4.90;;
22812;SDS011;11573;51.334;3.244;2023-05-10T06:16:06;9.57;;;5.47;;
22812;SDS011;11573;51.334;3.244;2023-05-10T06:18:33;9.32;;;4.78;;
22812;SDS011;11573;51.334;3.244;2023-05-10T06:21:00;10.45;;;5.63;;
22812;SDS011;11573;51.334;3.244;2023-05-10T06:23:27;11.18;;;5.45;;
22812;SDS011;11573;51.334;3.244;2023-05-10T06:25:55;8.95;;;5.43;;
22812;SDS011;11573;51.334;3.244;2023-05-10T06:28:21;10.05;;;6.00;;
22812;SDS011;11573;51.334;3.244;2023-05-10T06:30:48;10.93;;;5.60;;
22812;SDS011;11573;51.334;3.244;2023-05-10T06:33:16;10.00;;;5.57;;
22812;SDS011;11573;51.334;3.244;2023-05-10T06:35:43;9.57;;;5.05;;
22812;SDS011;11573;51.334;3.244;2023-05-10T06:38:10;10.05;;;5.15;;
22812;SDS011;11573;51.334;3.244;2023-05-10T06:40:40;10.63;;;5.65;;
22812;SDS011;11573;51.334;3.244;2023-05-10T06:43:08;6.95;;;4.15;;
22812;SDS011;11573;51.334;3.244;2023-05-10T06:45:36;5.95;;;3.55;;
22812;SDS011;11573;51.334;3.244;2023-05-10T06:48:03;8.00;;;4.35;;
22812;SDS011;11573;51.334;3.244;2023-05-10T06:50:30;6.70;;;3.72;;
22812;SDS011;11573;51.334;3.244;2023-05-10T06:52:57;6.45;;;3.67;;
22812;SDS011;11573;51.334;3.244;2023-05-10T06:55:24;4.45;;;3.03;;
22812;SDS011;11573;51.334;3.244;2023-05-10T06:57:51;4.82;;;2.85;;
22812;SDS011;11573;51.334;3.244;2023-05-10T07:00:19;5.82;;;3.40;;
22812;SDS011;11573;51.334;3.244;2023-05-10T07:02:47;6.35;;;3.00;;
22812;SDS011;11573;51.334;3.244;2023-05-10T07:05:14;3.90;;;2.83;;
22812;SDS011;11573;51.334;3.244;2023-05-10T07:07:41;6.13;;;3.17;;
22812;SDS011;11573;51.334;3.244;2023-05-10T07:10:09;5.45;;;3.08;;
22812;SDS011;11573;51.334;3.244;2023-05-10T07:12:36;5.60;;;3.30;;
22812;SDS011;11573;51.334;3.244;2023-05-10T07:15:03;4.40;;;2.97;;
22812;SDS011;11573;51.334;3.244;2023-05-10T07:17:31;7.22;;;3.55;;
22812;SDS011;11573;51.334;3.244;2023-05-10T07:19:59;3.72;;;2.97;;
22812;SDS011;11573;51.334;3.244;2023-05-10T07:22:26;5.70;;;3.60;;
22812;SDS011;11573;51.334;3.244;2023-05-10T07:24:53;7.72;;;3.85;;
22812;SDS011;11573;51.334;3.244;2023-05-10T07:27:20;5.72;;;3.58;;
22812;SDS011;11573;51.334;3.244;2023-05-10T07:29:47;6.28;;;3.70;;
22812;SDS011;11573;51.334;3.244;2023-05-10T07:32:14;5.95;;;3.33;;
22812;SDS011;11573;51.334;3.244;2023-05-10T07:34:41;4.75;;;3.47;;
22812;SDS011;11573;51.334;3.244;2023-05-10T07:37:08;5.68;;;3.50;;
22812;SDS011;11573;51.334;3.244;2023-05-10T07:39:35;6.63;;;3.78;;
22812;SDS011;11573;51.334;3.244;2023-05-10T07:42:02;8.07;;;4.15;;
22812;SDS011;11573;51.334;3.244;2023-05-10T07:44:29;7.13;;;3.63;;
22812;SDS011;11573;51.334;3.244;2023-05-10T07:46:56;7.63;;;4.30;;
22812;SDS011;11573;51.334;3.244;2023-05-10T07:49:23;7.00;;;3.97;;
22812;SDS011;11573;51.334;3.244;2023-05-10T07:51:52;7.50;;;3.90;;
22812;SDS011;11573;51.334;3.244;2023-05-10T07:54:19;6.95;;;4.05;;
22812;SDS011;11573;51.334;3.244;2023-05-10T07:56:46;6.68;;;4.25;;
22812;SDS011;11573;51.334;3.244;2023-05-10T07:59:17;8.73;;;5.22;;
22812;SDS011;11573;51.334;3.244;2023-05-10T08:01:44;9.20;;;5.13;;
22812;SDS011;11573;51.334;3.244;2023-05-10T08:04:11;8.63;;;5.30;;
22812;SDS011;11573;51.334;3.244;2023-05-10T08:06:38;8.85;;;5.53;;
22812;SDS011;11573;51.334;3.244;2023-05-10T08:09:06;7.95;;;5.10;;
22812;SDS011;11573;51.334;3.244;2023-05-10T08:11:33;9.05;;;5.60;;
22812;SDS011;11573;51.334;3.244;2023-05-10T08:14:01;7.90;;;4.88;;
22812;SDS011;11573;51.334;3.244;2023-05-10T08:16:28;9.27;;;4.70;;
22812;SDS011;11573;51.334;3.244;2023-05-10T08:18:55;7.00;;;4.70;;
22812;SDS011;11573;51.334;3.244;2023-05-10T08:21:22;6.70;;;4.80;;
22812;SDS011;11573;51.334;3.244;2023-05-10T08:23:49;8.95;;;4.82;;
22812;SDS011;11573;51.334;3.244;2023-05-10T08:26:16;5.90;;;3.97;;
22812;SDS011;11573;51.334;3.244;2023-05-10T08:28:43;7.63;;;4.05;;
22812;SDS011;11573;51.334;3.244;2023-05-10T08:31:10;10.88;;;4.25;;
22812;SDS011;11573;51.334;3.244;2023-05-10T08:33:38;8.20;;;4.75;;
22812;SDS011;11573;51.334;3.244;2023-05-10T08:36:07;7.35;;;4.50;;
22812;SDS011;11573;51.334;3.244;2023-05-10T08:38:34;5.40;;;3.65;;
22812;SDS011;11573;51.334;3.244;2023-05-10T08:41:02;8.25;;;4.78;;
22812;SDS011;11573;51.334;3.244;2023-05-10T08:43:29;10.82;;;5.20;;
22812;SDS011;11573;51.334;3.244;2023-05-10T08:45:59;10.57;;;5.72;;
22812;SDS011;11573;51.334;3.244;2023-05-10T08:48:29;15.00;;;6.85;;
22812;SDS011;11573;51.334;3.244;2023-05-10T08:50:57;13.38;;;8.23;;
22812;SDS011;11573;51.334;3.244;2023-05-10T08:53:27;17.20;;;9.68;;
22812;SDS011;11573;51.334;3.244;2023-05-10T08:55:57;16.10;;;9.63;;
22812;SDS011;11573;51.334;3.244;2023-05-10T08:58:24;12.27;;;7.22;;
22812;SDS011;11573;51.334;3.244;2023-05-10T09:00:52;16.15;;;8.73;;
22812;SDS011;11573;51.334;3.244;2023-05-10T09:03:19;13.23;;;8.18;;
22812;SDS011;11573;51.334;3.244;2023-05-10T09:05:47;11.77;;;6.55;;
22812;SDS011;11573;51.334;3.244;2023-05-10T09:08:15;11.68;;;6.28;;
22812;SDS011;11573;51.334;3.244;2023-05-10T09:10:43;11.55;;;6.57;;
22812;SDS011;11573;51.334;3.244;2023-05-10T09:13:13;10.05;;;6.93;;
22812;SDS011;11573;51.334;3.244;2023-05-10T09:15:42;15.68;;;7.15;;
22812;SDS011;11573;51.334;3.244;2023-05-10T09:18:10;10.80;;;7.30;;
22812;SDS011;11573;51.334;3.244;2023-05-10T09:20:37;13.88;;;9.35;;
22812;SDS011;11573;51.334;3.244;2023-05-10T09:23:04;11.05;;;8.48;;
22812;SDS011;11573;51.334;3.244;2023-05-10T09:25:32;13.73;;;8.35;;
22812;SDS011;11573;51.334;3.244;2023-05-10T09:28:02;13.95;;;8.88;;
22812;SDS011;11573;51.334;3.244;2023-05-10T09:30:32;12.65;;;7.35;;
22812;SDS011;11573;51.334;3.244;2023-05-10T09:32:59;11.00;;;8.30;;
22812;SDS011;11573;51.334;3.244;2023-05-10T09:35:27;11.55;;;7.13;;
22812;SDS011;11573;51.334;3.244;2023-05-10T09:38:00;12.25;;;7.70;;
22812;SDS011;11573;51.334;3.244;2023-05-10T09:40:29;14.85;;;6.85;;
22812;SDS011;11573;51.334;3.244;2023-05-10T09:42:57;14.00;;;7.28;;
22812;SDS011;11573;51.334;3.244;2023-05-10T09:45:25;16.98;;;7.63;;
22812;SDS011;11573;51.334;3.244;2023-05-10T09:47:56;11.35;;;6.70;;
22812;SDS011;11573;51.334;3.244;2023-05-10T09:50:24;12.70;;;7.05;;
22812;SDS011;11573;51.334;3.244;2023-05-10T09:52:53;14.23;;;7.03;;
22812;SDS011;11573;51.334;3.244;2023-05-10T09:55:42;13.00;;;6.88;;
22812;SDS011;11573;51.334;3.244;2023-05-10T09:58:12;11.75;;;6.22;;
22812;SDS011;11573;51.334;3.244;2023-05-10T10:00:41;15.27;;;7.10;;
22812;SDS011;11573;51.334;3.244;2023-05-10T10:03:13;13.23;;;7.22;;
22812;SDS011;11573;51.334;3.244;2023-05-10T10:05:42;14.82;;;6.10;;
22812;SDS011;11573;51.334;3.244;2023-05-10T10:08:10;12.63;;;6.82;;
22812;SDS011;11573;51.334;3.244;2023-05-10T10:10:38;18.70;;;7.90;;
22812;SDS011;11573;51.334;3.244;2023-05-10T10:13:11;15.52;;;7.13;;
22812;SDS011;11573;51.334;3.244;2023-05-10T10:15:39;12.40;;;6.80;;
22812;SDS011;11573;51.334;3.244;2023-05-10T10:18:06;10.95;;;5.97;;
22812;SDS011;11573;51.334;3.244;2023-05-10T10:20:35;11.48;;;6.32;;
22812;SDS011;11573;51.334;3.244;2023-05-10T10:23:03;14.88;;;6.97;;
22812;SDS011;11573;51.334;3.244;2023-05-10T10:25:31;14.52;;;6.85;;
22812;SDS011;11573;51.334;3.244;2023-05-10T10:28:01;13.43;;;6.70;;
22812;SDS011;11573;51.334;3.244;2023-05-10T10:30:42;10.77;;;5.85;;
22812;SDS011;11573;51.334;3.244;2023-05-10T10:36:05;16.27;;;6.45;;
22812;SDS011;11573;51.334;3.244;2023-05-10T10:38:36;9.40;;;5.50;;
22812;SDS011;11573;51.334;3.244;2023-05-10T10:41:09;11.20;;;5.13;;
22812;SDS011;11573;51.334;3.244;2023-05-10T10:43:38;11.07;;;5.32;;
22812;SDS011;11573;51.334;3.244;2023-05-10T10:46:12;8.85;;;4.93;;
22812;SDS011;11573;51.334;3.244;2023-05-10T10:48:47;11.65;;;5.45;;
22812;SDS011;11573;51.334;3.244;2023-05-10T10:51:16;8.57;;;5.57;;
22812;SDS011;11573;51.334;3.244;2023-05-10T10:53:43;12.70;;;5.35;;
22812;SDS011;11573;51.334;3.244;2023-05-10T10:56:10;9.35;;;5.38;;
22812;SDS011;11573;51.334;3.244;2023-05-10T10:58:49;11.57;;;6.50;;
22812;SDS011;11573;51.334;3.244;2023-05-10T11:01:20;15.70;;;6.05;;
22812;SDS011;11573;51.334;3.244;2023-05-10T11:06:33;14.15;;;6.30;;
22812;SDS011;11573;51.334;3.244;2023-05-10T11:09:07;13.52;;;6.30;;
22812;SDS011;11573;51.334;3.244;2023-05-10T11:11:36;11.05;;;6.38;;
22812;SDS011;11573;51.334;3.244;2023-05-10T11:14:14;12.82;;;6.53;;
22812;SDS011;11573;51.334;3.244;2023-05-10T11:16:46;15.27;;;6.90;;
22812;SDS011;11573;51.334;3.244;2023-05-10T11:19:14;13.13;;;6.88;;
22812;SDS011;11573;51.334;3.244;2023-05-10T11:21:50;17.00;;;7.95;;
22812;SDS011;11573;51.334;3.244;2023-05-10T11:24:37;14.88;;;7.22;;
22812;SDS011;11573;51.334;3.244;2023-05-10T11:27:05;12.90;;;7.07;;
22812;SDS011;11573;51.334;3.244;2023-05-10T11:29:32;13.07;;;7.80;;
22812;SDS011;11573;51.334;3.244;2023-05-10T11:31:59;13.73;;;8.05;;
22812;SDS011;11573;51.334;3.244;2023-05-10T11:34:30;14.88;;;8.35;;
22812;SDS011;11573;51.334;3.244;2023-05-10T11:37:00;15.20;;;8.52;;
22812;SDS011;11573;51.334;3.244;2023-05-10T11:39:27;18.52;;;8.75;;
22812;SDS011;11573;51.334;3.244;2023-05-10T11:41:56;16.58;;;7.88;;
22812;SDS011;11573;51.334;3.244;2023-05-10T11:44:28;19.70;;;7.57;;
22812;SDS011;11573;51.334;3.244;2023-05-10T11:47:00;15.88;;;7.13;;
22812;SDS011;11573;51.334;3.244;2023-05-10T11:49:28;18.50;;;7.95;;
22812;SDS011;11573;51.334;3.244;2023-05-10T11:52:03;22.02;;;6.80;;
22812;SDS011;11573;51.334;3.244;2023-05-10T11:54:34;25.75;;;7.53;;
22812;SDS011;11573;51.334;3.244;2023-05-10T11:57:01;18.50;;;6.18;;
22812;SDS011;11573;51.334;3.244;2023-05-10T11:59:28;17.02;;;6.68;;
22812;SDS011;11573;51.334;3.244;2023-05-10T12:01:55;21.67;;;7.20;;
22812;SDS011;11573;51.334;3.244;2023-05-10T12:04:23;17.58;;;6.10;;
22812;SDS011;11573;51.334;3.244;2023-05-10T12:06:50;15.40;;;6.28;;
22812;SDS011;11573;51.334;3.244;2023-05-10T12:09:17;17.48;;;6.32;;
22812;SDS011;11573;51.334;3.244;2023-05-10T12:11:57;19.17;;;5.90;;
22812;SDS011;11573;51.334;3.244;2023-05-10T12:14:24;12.18;;;5.40;;
22812;SDS011;11573;51.334;3.244;2023-05-10T12:16:51;21.42;;;5.60;;
22812;SDS011;11573;51.334;3.244;2023-05-10T12:19:18;20.88;;;5.40;;
22812;SDS011;11573;51.334;3.244;2023-05-10T12:21:49;15.05;;;4.75;;
22812;SDS011;11573;51.334;3.244;2023-05-10T12:24:16;16.63;;;5.22;;
22812;SDS011;11573;51.334;3.244;2023-05-10T12:26:47;17.80;;;5.50;;
22812;SDS011;11573;51.334;3.244;2023-05-10T12:29:15;17.02;;;4.97;;
22812;SDS011;11573;51.334;3.244;2023-05-10T12:31:53;15.00;;;4.32;;
22812;SDS011;11573;51.334;3.244;2023-05-10T12:34:31;16.10;;;5.78;;
22812;SDS011;11573;51.334;3.244;2023-05-10T12:36:59;11.23;;;4.28;;
22812;SDS011;11573;51.334;3.244;2023-05-10T12:39:37;15.30;;;4.75;;
22812;SDS011;11573;51.334;3.244;2023-05-10T12:42:09;12.02;;;4.97;;
22812;SDS011;11573;51.334;3.244;2023-05-10T12:44:36;15.15;;;5.10;;
22812;SDS011;11573;51.334;3.244;2023-05-10T12:47:03;16.10;;;5.03;;
22812;SDS011;11573;51.334;3.244;2023-05-10T12:49:31;16.60;;;5.65;;
22812;SDS011;11573;51.334;3.244;2023-05-10T12:51:58;13.18;;;5.20;;
22812;SDS011;11573;51.334;3.244;2023-05-10T12:54:25;18.45;;;5.00;;
22812;SDS011;11573;51.334;3.244;2023-05-10T12:56:52;13.63;;;4.82;;
22812;SDS011;11573;51.334;3.244;2023-05-10T12:59:19;13.75;;;5.07;;
22812;SDS011;11573;51.334;3.244;2023-05-10T13:01:46;17.48;;;5.53;;
22812;SDS011;11573;51.334;3.244;2023-05-10T13:04:13;17.33;;;5.30;;
22812;SDS011;11573;51.334;3.244;2023-05-10T13:06:40;12.70;;;5.22;;
22812;SDS011;11573;51.334;3.244;2023-05-10T13:09:07;17.83;;;5.20;;
22812;SDS011;11573;51.334;3.244;2023-05-10T13:11:34;17.20;;;5.82;;
22812;SDS011;11573;51.334;3.244;2023-05-10T13:14:00;19.63;;;5.20;;
22812;SDS011;11573;51.334;3.244;2023-05-10T13:16:29;15.60;;;4.68;;
22812;SDS011;11573;51.334;3.244;2023-05-10T13:18:56;15.15;;;4.65;;
22812;SDS011;11573;51.334;3.244;2023-05-10T13:21:23;16.23;;;4.43;;
22812;SDS011;11573;51.334;3.244;2023-05-10T13:23:51;16.02;;;4.30;;
22812;SDS011;11573;51.334;3.244;2023-05-10T13:26:18;17.52;;;4.95;;
22812;SDS011;11573;51.334;3.244;2023-05-10T13:28:45;19.40;;;5.00;;
22812;SDS011;11573;51.334;3.244;2023-05-10T13:31:12;15.30;;;4.95;;
22812;SDS011;11573;51.334;3.244;2023-05-10T13:33:39;15.57;;;4.88;;
22812;SDS011;11573;51.334;3.244;2023-05-10T13:36:06;16.85;;;5.30;;
22812;SDS011;11573;51.334;3.244;2023-05-10T13:38:33;11.98;;;4.40;;
22812;SDS011;11573;51.334;3.244;2023-05-10T13:41:00;14.85;;;4.60;;
22812;SDS011;11573;51.334;3.244;2023-05-10T13:43:28;14.50;;;4.88;;
22812;SDS011;11573;51.334;3.244;2023-05-10T13:45:55;16.52;;;5.10;;
22812;SDS011;11573;51.334;3.244;2023-05-10T13:48:23;18.65;;;5.22;;
22812;SDS011;11573;51.334;3.244;2023-05-10T13:50:50;16.85;;;5.50;;
22812;SDS011;11573;51.334;3.244;2023-05-10T13:53:16;14.35;;;4.50;;
22812;SDS011;11573;51.334;3.244;2023-05-10T13:55:43;14.55;;;5.25;;
22812;SDS011;11573;51.334;3.244;2023-05-10T13:58:10;12.00;;;4.95;;
22812;SDS011;11573;51.334;3.244;2023-05-10T14:00:37;12.48;;;4.57;;
22812;SDS011;11573;51.334;3.244;2023-05-10T14:03:04;16.55;;;5.57;;
22812;SDS011;11573;51.334;3.244;2023-05-10T14:05:32;15.30;;;5.18;;
22812;SDS011;11573;51.334;3.244;2023-05-10T14:07:59;12.25;;;4.60;;
22812;SDS011;11573;51.334;3.244;2023-05-10T14:10:26;17.05;;;4.80;;
22812;SDS011;11573;51.334;3.244;2023-05-10T14:12:53;16.98;;;5.10;;
22812;SDS011;11573;51.334;3.244;2023-05-10T14:15:20;17.80;;;5.03;;
22812;SDS011;11573;51.334;3.244;2023-05-10T14:17:47;12.13;;;4.53;;
22812;SDS011;11573;51.334;3.244;2023-05-10T14:20:14;13.27;;;5.22;;
22812;SDS011;11573;51.334;3.244;2023-05-10T14:22:41;12.90;;;4.93;;
22812;SDS011;11573;51.334;3.244;2023-05-10T14:25:08;14.93;;;4.60;;
22812;SDS011;11573;51.334;3.244;2023-05-10T14:27:35;12.73;;;5.00;;
22812;SDS011;11573;51.334;3.244;2023-05-10T14:30:02;15.93;;;4.93;;
22812;SDS011;11573;51.334;3.244;2023-05-10T14:32:30;13.13;;;4.97;;
22812;SDS011;11573;51.334;3.244;2023-05-10T14:34:58;15.70;;;5.07;;
22812;SDS011;11573;51.334;3.244;2023-05-10T14:37:25;15.90;;;4.70;;
22812;SDS011;11573;51.334;3.244;2023-05-10T14:39:53;13.43;;;4.80;;
22812;SDS011;11573;51.334;3.244;2023-05-10T14:42:20;18.98;;;4.93;;
22812;SDS011;11573;51.334;3.244;2023-05-10T14:44:47;14.43;;;4.40;;
22812;SDS011;11573;51.334;3.244;2023-05-10T14:47:14;13.82;;;4.32;;
22812;SDS011;11573;51.334;3.244;2023-05-10T14:49:41;17.55;;;5.18;;
22812;SDS011;11573;51.334;3.244;2023-05-10T14:52:08;15.80;;;4.47;;
22812;SDS011;11573;51.334;3.244;2023-05-10T14:54:35;13.93;;;4.65;;
22812;SDS011;11573;51.334;3.244;2023-05-10T14:57:02;18.67;;;5.30;;
22812;SDS011;11573;51.334;3.244;2023-05-10T14:59:29;15.23;;;4.95;;
22812;SDS011;11573;51.334;3.244;2023-05-10T15:01:56;17.75;;;5.00;;
22812;SDS011;11573;51.334;3.244;2023-05-10T15:04:23;14.23;;;4.53;;
22812;SDS011;11573;51.334;3.244;2023-05-10T15:06:54;12.27;;;4.82;;
22812;SDS011;11573;51.334;3.244;2023-05-10T15:09:25;13.65;;;4.80;;
22812;SDS011;11573;51.334;3.244;2023-05-10T15:11:54;14.95;;;4.70;;